sensor_id;sensor_type;location;lat;lon;timestamp;P1;durP1;ratioP1;P2;durP2;ratioP2
5650;SDS011;40241;52.684;9.758;2023-12-04T00:02:06;21.00;;;11.37;;
5650;SDS011;40241;52.684;9.758;2023-12-04T00:04:31;24.13;;;12.90;;
5650;SDS011;40241;52.684;9.758;2023-12-04T00:06:57;24.60;;;12.23;;
5650;SDS011;40241;52.684;9.758;2023-12-04T00:09:22;22.97;;;11.53;;
5650;SDS011;40241;52.684;9.758;2023-12-04T00:11:49;21.50;;;12.07;;
5650;SDS011;40241;52.684;9.758;2023-12-04T00:14:15;21.63;;;11.50;;
5650;SDS011;40241;52.684;9.758;2023-12-04T00:16:40;21.27;;;11.73;;
5650;SDS011;40241;52.684;9.758;2023-12-04T00:19:05;20.37;;;11.77;;
5650;SDS011;40241;52.684;9.758;2023-12-04T00:21:31;22.40;;;11.97;;
5650;SDS011;40241;52.684;9.758;2023-12-04T00:23:57;20.43;;;11.50;;
5650;SDS011;40241;52.684;9.758;2023-12-04T00:26:22;21.97;;;11.63;;
5650;SDS011;40241;52.684;9.758;2023-12-04T00:28:47;22.67;;;12.33;;
5650;SDS011;40241;52.684;9.758;2023-12-04T00:31:13;20.43;;;12.40;;
5650;SDS011;40241;52.684;9.758;2023-12-04T00:33:38;21.27;;;12.10;;
5650;SDS011;40241;52.684;9.758;2023-12-04T00:36:04;18.87;;;11.60;;
5650;SDS011;40241;52.684;9.758;2023-12-04T00:38:29;21.50;;;12.60;;
5650;SDS011;40241;52.684;9.758;2023-12-04T00:40:54;22.43;;;11.97;;
5650;SDS011;40241;52.684;9.758;2023-12-04T00:43:20;24.60;;;13.40;;
5650;SDS011;40241;52.684;9.758;2023-12-04T00:45:45;23.87;;;13.07;;
5650;SDS011;40241;52.684;9.758;2023-12-04T00:48:10;20.53;;;11.17;;
5650;SDS011;40241;52.684;9.758;2023-12-04T00:50:36;21.33;;;12.10;;
5650;SDS011;40241;52.684;9.758;2023-12-04T00:53:01;18.83;;;10.80;;
5650;SDS011;40241;52.684;9.758;2023-12-04T00:55:26;20.60;;;11.40;;
5650;SDS011;40241;52.684;9.758;2023-12-04T00:57:52;20.60;;;11.47;;
5650;SDS011;40241;52.684;9.758;2023-12-04T01:00:17;21.47;;;11.03;;
5650;SDS011;40241;52.684;9.758;2023-12-04T01:02:43;18.93;;;10.90;;
5650;SDS011;40241;52.684;9.758;2023-12-04T01:05:08;18.03;;;10.30;;
5650;SDS011;40241;52.684;9.758;2023-12-04T01:07:33;20.40;;;11.17;;
5650;SDS011;40241;52.684;9.758;2023-12-04T01:09:59;18.37;;;10.70;;
5650;SDS011;40241;52.684;9.758;2023-12-04T01:12:24;20.70;;;10.63;;
5650;SDS011;40241;52.684;9.758;2023-12-04T01:14:49;16.77;;;9.43;;
5650;SDS011;40241;52.684;9.758;2023-12-04T01:17:15;18.50;;;10.77;;
5650;SDS011;40241;52.684;9.758;2023-12-04T01:19:40;18.80;;;10.17;;
5650;SDS011;40241;52.684;9.758;2023-12-04T01:22:05;22.10;;;10.70;;
5650;SDS011;40241;52.684;9.758;2023-12-04T01:24:31;17.70;;;9.97;;
5650;SDS011;40241;52.684;9.758;2023-12-04T01:26:57;19.80;;;10.70;;
5650;SDS011;40241;52.684;9.758;2023-12-04T01:29:22;16.23;;;9.87;;
5650;SDS011;40241;52.684;9.758;2023-12-04T01:31:47;17.50;;;10.67;;
5650;SDS011;40241;52.684;9.758;2023-12-04T01:34:13;18.63;;;10.80;;
5650;SDS011;40241;52.684;9.758;2023-12-04T01:36:41;18.27;;;9.87;;
5650;SDS011;40241;52.684;9.758;2023-12-04T01:39:07;15.83;;;10.30;;
5650;SDS011;40241;52.684;9.758;2023-12-04T01:41:32;15.10;;;9.53;;
5650;SDS011;40241;52.684;9.758;2023-12-04T01:43:58;17.53;;;9.63;;
5650;SDS011;40241;52.684;9.758;2023-12-04T01:46:23;16.73;;;9.37;;
5650;SDS011;40241;52.684;9.758;2023-12-04T01:48:49;19.80;;;10.10;;
5650;SDS011;40241;52.684;9.758;2023-12-04T01:51:15;19.67;;;10.07;;
5650;SDS011;40241;52.684;9.758;2023-12-04T01:53:42;18.03;;;10.27;;
5650;SDS011;40241;52.684;9.758;2023-12-04T01:56:08;15.87;;;9.20;;
5650;SDS011;40241;52.684;9.758;2023-12-04T01:58:34;18.07;;;9.23;;
5650;SDS011;40241;52.684;9.758;2023-12-04T02:00:59;16.17;;;8.50;;
5650;SDS011;40241;52.684;9.758;2023-12-04T02:03:25;16.70;;;9.50;;
5650;SDS011;40241;52.684;9.758;2023-12-04T02:05:51;16.77;;;8.10;;
5650;SDS011;40241;52.684;9.758;2023-12-04T02:08:17;15.10;;;8.80;;
5650;SDS011;40241;52.684;9.758;2023-12-04T02:10:43;16.57;;;9.13;;
5650;SDS011;40241;52.684;9.758;2023-12-04T02:13:09;14.97;;;8.27;;
5650;SDS011;40241;52.684;9.758;2023-12-04T02:15:35;14.70;;;8.50;;
5650;SDS011;40241;52.684;9.758;2023-12-04T02:18:01;17.03;;;7.67;;
5650;SDS011;40241;52.684;9.758;2023-12-04T02:20:31;14.87;;;8.87;;
5650;SDS011;40241;52.684;9.758;2023-12-04T02:22:58;15.17;;;8.20;;
5650;SDS011;40241;52.684;9.758;2023-12-04T02:25:23;14.00;;;7.83;;
5650;SDS011;40241;52.684;9.758;2023-12-04T02:27:49;12.60;;;7.93;;
5650;SDS011;40241;52.684;9.758;2023-12-04T02:30:17;13.23;;;8.33;;
5650;SDS011;40241;52.684;9.758;2023-12-04T02:32:45;16.07;;;8.10;;
5650;SDS011;40241;52.684;9.758;2023-12-04T02:35:11;11.97;;;7.60;;
5650;SDS011;40241;52.684;9.758;2023-12-04T02:37:39;12.97;;;7.30;;
5650;SDS011;40241;52.684;9.758;2023-12-04T02:40:06;11.57;;;7.33;;
5650;SDS011;40241;52.684;9.758;2023-12-04T02:42:32;12.43;;;7.70;;
5650;SDS011;40241;52.684;9.758;2023-12-04T02:44:57;12.80;;;7.47;;
5650;SDS011;40241;52.684;9.758;2023-12-04T02:47:23;14.13;;;8.40;;
5650;SDS011;40241;52.684;9.758;2023-12-04T02:49:48;13.00;;;7.73;;
5650;SDS011;40241;52.684;9.758;2023-12-04T02:52:13;13.93;;;7.73;;
5650;SDS011;40241;52.684;9.758;2023-12-04T02:54:39;11.30;;;7.13;;
5650;SDS011;40241;52.684;9.758;2023-12-04T02:57:04;11.63;;;7.47;;
5650;SDS011;40241;52.684;9.758;2023-12-04T02:59:29;15.23;;;8.10;;
5650;SDS011;40241;52.684;9.758;2023-12-04T03:01:55;11.07;;;7.03;;
5650;SDS011;40241;52.684;9.758;2023-12-04T03:04:20;12.63;;;7.27;;
5650;SDS011;40241;52.684;9.758;2023-12-04T03:06:45;8.63;;;6.60;;
5650;SDS011;40241;52.684;9.758;2023-12-04T03:09:11;12.37;;;7.10;;
5650;SDS011;40241;52.684;9.758;2023-12-04T03:11:39;10.80;;;6.90;;
5650;SDS011;40241;52.684;9.758;2023-12-04T03:14:04;10.43;;;6.60;;
5650;SDS011;40241;52.684;9.758;2023-12-04T03:16:30;11.80;;;7.10;;
5650;SDS011;40241;52.684;9.758;2023-12-04T03:18:55;12.57;;;7.37;;
5650;SDS011;40241;52.684;9.758;2023-12-04T03:21:20;13.87;;;8.00;;
5650;SDS011;40241;52.684;9.758;2023-12-04T03:23:46;14.13;;;7.80;;
5650;SDS011;40241;52.684;9.758;2023-12-04T03:26:11;13.90;;;8.07;;
5650;SDS011;40241;52.684;9.758;2023-12-04T03:28:38;14.60;;;7.50;;
5650;SDS011;40241;52.684;9.758;2023-12-04T03:31:03;12.00;;;7.63;;
5650;SDS011;40241;52.684;9.758;2023-12-04T03:33:29;14.60;;;8.07;;
5650;SDS011;40241;52.684;9.758;2023-12-04T03:35:54;12.03;;;7.90;;
5650;SDS011;40241;52.684;9.758;2023-12-04T03:38:19;13.30;;;8.20;;
5650;SDS011;40241;52.684;9.758;2023-12-04T03:40:45;12.67;;;7.37;;
5650;SDS011;40241;52.684;9.758;2023-12-04T03:43:10;11.93;;;7.40;;
5650;SDS011;40241;52.684;9.758;2023-12-04T03:45:35;11.37;;;7.20;;
5650;SDS011;40241;52.684;9.758;2023-12-04T03:48:01;16.20;;;7.90;;
5650;SDS011;40241;52.684;9.758;2023-12-04T03:50:26;15.17;;;8.47;;
5650;SDS011;40241;52.684;9.758;2023-12-04T03:52:51;16.20;;;8.50;;
5650;SDS011;40241;52.684;9.758;2023-12-04T03:55:16;18.80;;;8.10;;
5650;SDS011;40241;52.684;9.758;2023-12-04T03:57:44;14.43;;;7.93;;
5650;SDS011;40241;52.684;9.758;2023-12-04T04:00:10;15.13;;;8.10;;
5650;SDS011;40241;52.684;9.758;2023-12-04T04:02:36;18.30;;;8.17;;
5650;SDS011;40241;52.684;9.758;2023-12-04T04:05:01;14.70;;;8.00;;
5650;SDS011;40241;52.684;9.758;2023-12-04T04:07:26;16.70;;;8.10;;
5650;SDS011;40241;52.684;9.758;2023-12-04T04:09:52;14.23;;;8.60;;
5650;SDS011;40241;52.684;9.758;2023-12-04T04:12:17;13.10;;;7.80;;
5650;SDS011;40241;52.684;9.758;2023-12-04T04:14:43;15.63;;;8.03;;
5650;SDS011;40241;52.684;9.758;2023-12-04T04:17:08;13.20;;;7.57;;
5650;SDS011;40241;52.684;9.758;2023-12-04T04:19:33;13.30;;;7.80;;
5650;SDS011;40241;52.684;9.758;2023-12-04T04:21:59;14.27;;;8.00;;
5650;SDS011;40241;52.684;9.758;2023-12-04T04:24:24;12.80;;;7.50;;
5650;SDS011;40241;52.684;9.758;2023-12-04T04:26:49;14.63;;;7.50;;
5650;SDS011;40241;52.684;9.758;2023-12-04T04:29:14;11.20;;;6.80;;
5650;SDS011;40241;52.684;9.758;2023-12-04T04:31:40;15.87;;;7.60;;
5650;SDS011;40241;52.684;9.758;2023-12-04T04:34:05;11.93;;;7.23;;
5650;SDS011;40241;52.684;9.758;2023-12-04T04:36:30;13.87;;;7.87;;
5650;SDS011;40241;52.684;9.758;2023-12-04T04:38:56;12.90;;;7.80;;
5650;SDS011;40241;52.684;9.758;2023-12-04T04:41:21;10.50;;;6.00;;
5650;SDS011;40241;52.684;9.758;2023-12-04T04:43:46;11.27;;;7.10;;
5650;SDS011;40241;52.684;9.758;2023-12-04T04:46:12;17.70;;;7.60;;
5650;SDS011;40241;52.684;9.758;2023-12-04T04:48:37;12.17;;;6.87;;
5650;SDS011;40241;52.684;9.758;2023-12-04T04:51:03;12.97;;;7.33;;
5650;SDS011;40241;52.684;9.758;2023-12-04T04:53:28;11.83;;;7.13;;
5650;SDS011;40241;52.684;9.758;2023-12-04T04:55:54;12.70;;;7.73;;
5650;SDS011;40241;52.684;9.758;2023-12-04T04:58:19;12.70;;;7.20;;
5650;SDS011;40241;52.684;9.758;2023-12-04T05:00:45;11.53;;;6.60;;
5650;SDS011;40241;52.684;9.758;2023-12-04T05:03:10;10.70;;;7.10;;
5650;SDS011;40241;52.684;9.758;2023-12-04T05:05:36;14.27;;;8.37;;
5650;SDS011;40241;52.684;9.758;2023-12-04T05:08:01;11.30;;;6.93;;
5650;SDS011;40241;52.684;9.758;2023-12-04T05:10:26;12.77;;;7.30;;
5650;SDS011;40241;52.684;9.758;2023-12-04T05:12:52;9.50;;;6.20;;
5650;SDS011;40241;52.684;9.758;2023-12-04T05:15:17;10.47;;;6.30;;
5650;SDS011;40241;52.684;9.758;2023-12-04T05:17:42;14.00;;;7.90;;
5650;SDS011;40241;52.684;9.758;2023-12-04T05:20:08;12.17;;;7.70;;
5650;SDS011;40241;52.684;9.758;2023-12-04T05:22:34;11.37;;;6.97;;
5650;SDS011;40241;52.684;9.758;2023-12-04T05:25:00;13.87;;;7.70;;
5650;SDS011;40241;52.684;9.758;2023-12-04T05:27:25;11.60;;;7.57;;
5650;SDS011;40241;52.684;9.758;2023-12-04T05:29:50;14.60;;;8.70;;
5650;SDS011;40241;52.684;9.758;2023-12-04T05:32:16;10.27;;;6.77;;
5650;SDS011;40241;52.684;9.758;2023-12-04T05:34:42;12.30;;;6.70;;
5650;SDS011;40241;52.684;9.758;2023-12-04T05:37:07;11.83;;;7.30;;
5650;SDS011;40241;52.684;9.758;2023-12-04T05:39:32;11.57;;;7.40;;
5650;SDS011;40241;52.684;9.758;2023-12-04T05:41:58;10.83;;;6.93;;
5650;SDS011;40241;52.684;9.758;2023-12-04T05:44:23;7.57;;;5.63;;
5650;SDS011;40241;52.684;9.758;2023-12-04T05:46:48;9.47;;;6.90;;
5650;SDS011;40241;52.684;9.758;2023-12-04T05:49:13;9.93;;;6.50;;
5650;SDS011;40241;52.684;9.758;2023-12-04T05:51:39;9.67;;;6.00;;
5650;SDS011;40241;52.684;9.758;2023-12-04T05:54:04;10.60;;;6.20;;
5650;SDS011;40241;52.684;9.758;2023-12-04T05:56:29;10.13;;;6.83;;
5650;SDS011;40241;52.684;9.758;2023-12-04T05:58:55;9.90;;;6.20;;
5650;SDS011;40241;52.684;9.758;2023-12-04T06:01:21;7.87;;;5.13;;
5650;SDS011;40241;52.684;9.758;2023-12-04T06:03:46;9.70;;;6.17;;
5650;SDS011;40241;52.684;9.758;2023-12-04T06:06:11;8.87;;;5.63;;
5650;SDS011;40241;52.684;9.758;2023-12-04T06:08:37;7.43;;;5.43;;
5650;SDS011;40241;52.684;9.758;2023-12-04T06:11:02;8.13;;;5.20;;
5650;SDS011;40241;52.684;9.758;2023-12-04T06:13:27;8.50;;;5.40;;
5650;SDS011;40241;52.684;9.758;2023-12-04T06:15:53;7.87;;;5.53;;
5650;SDS011;40241;52.684;9.758;2023-12-04T06:18:18;7.93;;;5.13;;
5650;SDS011;40241;52.684;9.758;2023-12-04T06:20:45;7.90;;;5.40;;
5650;SDS011;40241;52.684;9.758;2023-12-04T06:23:10;9.57;;;5.80;;
5650;SDS011;40241;52.684;9.758;2023-12-04T06:25:37;7.90;;;5.53;;
5650;SDS011;40241;52.684;9.758;2023-12-04T06:28:03;8.07;;;5.57;;
5650;SDS011;40241;52.684;9.758;2023-12-04T06:30:29;9.33;;;5.77;;
5650;SDS011;40241;52.684;9.758;2023-12-04T06:32:55;9.30;;;5.90;;
5650;SDS011;40241;52.684;9.758;2023-12-04T06:35:20;9.17;;;5.80;;
5650;SDS011;40241;52.684;9.758;2023-12-04T06:37:47;8.00;;;5.00;;
5650;SDS011;40241;52.684;9.758;2023-12-04T06:40:13;8.70;;;5.87;;
5650;SDS011;40241;52.684;9.758;2023-12-04T06:42:39;9.50;;;6.20;;
5650;SDS011;40241;52.684;9.758;2023-12-04T06:45:05;8.30;;;5.70;;
5650;SDS011;40241;52.684;9.758;2023-12-04T06:47:31;6.73;;;4.87;;
5650;SDS011;40241;52.684;9.758;2023-12-04T06:49:59;10.13;;;6.20;;
5650;SDS011;40241;52.684;9.758;2023-12-04T06:52:24;9.43;;;5.90;;
5650;SDS011;40241;52.684;9.758;2023-12-04T06:54:50;7.83;;;5.90;;
5650;SDS011;40241;52.684;9.758;2023-12-04T06:57:15;11.93;;;6.90;;
5650;SDS011;40241;52.684;9.758;2023-12-04T06:59:44;9.13;;;6.13;;
5650;SDS011;40241;52.684;9.758;2023-12-04T07:02:09;10.30;;;6.50;;
5650;SDS011;40241;52.684;9.758;2023-12-04T07:04:35;11.43;;;6.40;;
5650;SDS011;40241;52.684;9.758;2023-12-04T07:07:00;10.23;;;6.20;;
5650;SDS011;40241;52.684;9.758;2023-12-04T07:09:30;13.30;;;6.73;;
5650;SDS011;40241;52.684;9.758;2023-12-04T07:11:56;8.53;;;6.20;;
5650;SDS011;40241;52.684;9.758;2023-12-04T07:14:21;10.33;;;6.37;;
5650;SDS011;40241;52.684;9.758;2023-12-04T07:16:47;10.70;;;6.00;;
5650;SDS011;40241;52.684;9.758;2023-12-04T07:19:12;13.00;;;7.43;;
5650;SDS011;40241;52.684;9.758;2023-12-04T07:21:39;11.20;;;6.53;;
5650;SDS011;40241;52.684;9.758;2023-12-04T07:24:06;13.20;;;6.77;;
5650;SDS011;40241;52.684;9.758;2023-12-04T07:26:33;8.93;;;6.00;;
5650;SDS011;40241;52.684;9.758;2023-12-04T07:28:59;11.43;;;6.03;;
5650;SDS011;40241;52.684;9.758;2023-12-04T07:31:24;9.30;;;5.87;;
5650;SDS011;40241;52.684;9.758;2023-12-04T07:33:51;9.87;;;6.40;;
5650;SDS011;40241;52.684;9.758;2023-12-04T07:36:16;10.10;;;6.00;;
5650;SDS011;40241;52.684;9.758;2023-12-04T07:38:42;10.40;;;6.30;;
5650;SDS011;40241;52.684;9.758;2023-12-04T07:41:07;10.93;;;7.00;;
5650;SDS011;40241;52.684;9.758;2023-12-04T07:43:32;9.53;;;5.40;;
5650;SDS011;40241;52.684;9.758;2023-12-04T07:45:58;8.53;;;6.03;;
5650;SDS011;40241;52.684;9.758;2023-12-04T07:48:23;11.17;;;6.13;;
5650;SDS011;40241;52.684;9.758;2023-12-04T07:50:48;10.17;;;6.33;;
5650;SDS011;40241;52.684;9.758;2023-12-04T07:53:14;10.30;;;6.77;;
5650;SDS011;40241;52.684;9.758;2023-12-04T07:55:39;9.23;;;5.77;;
5650;SDS011;40241;52.684;9.758;2023-12-04T07:58:04;9.27;;;6.63;;
5650;SDS011;40241;52.684;9.758;2023-12-04T08:00:30;10.07;;;6.10;;
5650;SDS011;40241;52.684;9.758;2023-12-04T08:02:55;8.63;;;5.63;;
5650;SDS011;40241;52.684;9.758;2023-12-04T08:05:21;11.83;;;6.43;;
5650;SDS011;40241;52.684;9.758;2023-12-04T08:07:46;9.10;;;5.63;;
5650;SDS011;40241;52.684;9.758;2023-12-04T08:10:12;9.73;;;6.57;;
5650;SDS011;40241;52.684;9.758;2023-12-04T08:12:37;6.07;;;5.13;;
5650;SDS011;40241;52.684;9.758;2023-12-04T08:15:04;9.30;;;5.70;;
5650;SDS011;40241;52.684;9.758;2023-12-04T08:17:30;10.10;;;6.13;;
5650;SDS011;40241;52.684;9.758;2023-12-04T08:19:55;9.53;;;5.70;;
5650;SDS011;40241;52.684;9.758;2023-12-04T08:22:21;7.87;;;5.50;;
5650;SDS011;40241;52.684;9.758;2023-12-04T08:24:46;8.43;;;5.37;;
5650;SDS011;40241;52.684;9.758;2023-12-04T08:27:11;8.27;;;5.63;;
5650;SDS011;40241;52.684;9.758;2023-12-04T08:29:38;8.67;;;5.53;;
5650;SDS011;40241;52.684;9.758;2023-12-04T08:32:04;8.60;;;5.17;;
5650;SDS011;40241;52.684;9.758;2023-12-04T08:34:30;7.53;;;5.10;;
5650;SDS011;40241;52.684;9.758;2023-12-04T08:36:56;7.43;;;5.00;;
5650;SDS011;40241;52.684;9.758;2023-12-04T08:39:21;9.00;;;5.20;;
5650;SDS011;40241;52.684;9.758;2023-12-04T08:41:47;10.43;;;5.60;;
5650;SDS011;40241;52.684;9.758;2023-12-04T08:44:13;7.83;;;5.53;;
5650;SDS011;40241;52.684;9.758;2023-12-04T08:46:38;8.50;;;4.83;;
5650;SDS011;40241;52.684;9.758;2023-12-04T08:49:04;8.90;;;5.33;;
5650;SDS011;40241;52.684;9.758;2023-12-04T08:51:30;9.50;;;5.70;;
5650;SDS011;40241;52.684;9.758;2023-12-04T08:53:55;8.77;;;5.80;;
5650;SDS011;40241;52.684;9.758;2023-12-04T08:56:21;8.90;;;5.53;;
5650;SDS011;40241;52.684;9.758;2023-12-04T08:58:46;10.23;;;6.00;;
5650;SDS011;40241;52.684;9.758;2023-12-04T09:01:11;9.67;;;5.60;;
5650;SDS011;40241;52.684;9.758;2023-12-04T09:03:37;12.20;;;5.67;;
5650;SDS011;40241;52.684;9.758;2023-12-04T09:06:02;6.83;;;4.63;;
5650;SDS011;40241;52.684;9.758;2023-12-04T09:08:28;8.47;;;5.60;;
5650;SDS011;40241;52.684;9.758;2023-12-04T09:10:53;8.43;;;5.33;;
5650;SDS011;40241;52.684;9.758;2023-12-04T09:13:19;7.87;;;5.23;;
5650;SDS011;40241;52.684;9.758;2023-12-04T09:15:44;7.43;;;4.80;;
5650;SDS011;40241;52.684;9.758;2023-12-04T09:18:09;9.33;;;6.30;;
5650;SDS011;40241;52.684;9.758;2023-12-04T09:20:35;7.57;;;4.97;;
5650;SDS011;40241;52.684;9.758;2023-12-04T09:23:01;8.60;;;5.50;;
5650;SDS011;40241;52.684;9.758;2023-12-04T09:25:26;6.97;;;4.87;;
5650;SDS011;40241;52.684;9.758;2023-12-04T09:27:51;6.80;;;5.60;;
5650;SDS011;40241;52.684;9.758;2023-12-04T09:30:17;12.10;;;5.90;;
5650;SDS011;40241;52.684;9.758;2023-12-04T09:32:42;9.33;;;5.50;;
5650;SDS011;40241;52.684;9.758;2023-12-04T09:35:08;8.63;;;5.90;;
5650;SDS011;40241;52.684;9.758;2023-12-04T09:37:34;10.60;;;6.23;;
5650;SDS011;40241;52.684;9.758;2023-12-04T09:39:59;8.80;;;5.73;;
5650;SDS011;40241;52.684;9.758;2023-12-04T09:42:25;8.57;;;5.73;;
5650;SDS011;40241;52.684;9.758;2023-12-04T09:44:51;8.00;;;5.40;;
5650;SDS011;40241;52.684;9.758;2023-12-04T09:47:17;9.87;;;5.77;;
5650;SDS011;40241;52.684;9.758;2023-12-04T09:49:44;8.40;;;5.57;;
5650;SDS011;40241;52.684;9.758;2023-12-04T09:52:10;8.70;;;5.87;;
5650;SDS011;40241;52.684;9.758;2023-12-04T09:54:36;10.77;;;6.20;;
5650;SDS011;40241;52.684;9.758;2023-12-04T09:57:03;8.00;;;5.90;;
5650;SDS011;40241;52.684;9.758;2023-12-04T09:59:29;9.13;;;6.17;;
5650;SDS011;40241;52.684;9.758;2023-12-04T10:01:55;8.03;;;5.30;;
5650;SDS011;40241;52.684;9.758;2023-12-04T10:04:22;8.53;;;6.17;;
5650;SDS011;40241;52.684;9.758;2023-12-04T10:06:52;9.17;;;5.97;;
5650;SDS011;40241;52.684;9.758;2023-12-04T10:09:18;7.07;;;5.27;;
5650;SDS011;40241;52.684;9.758;2023-12-04T10:11:46;8.93;;;5.50;;
5650;SDS011;40241;52.684;9.758;2023-12-04T10:14:15;8.70;;;6.00;;
5650;SDS011;40241;52.684;9.758;2023-12-04T10:16:42;8.87;;;5.67;;
5650;SDS011;40241;52.684;9.758;2023-12-04T10:19:15;10.03;;;6.30;;
5650;SDS011;40241;52.684;9.758;2023-12-04T10:21:41;8.20;;;6.00;;
5650;SDS011;40241;52.684;9.758;2023-12-04T10:24:07;9.77;;;6.37;;
5650;SDS011;40241;52.684;9.758;2023-12-04T10:26:33;7.03;;;5.30;;
5650;SDS011;40241;52.684;9.758;2023-12-04T10:29:02;9.00;;;5.83;;
5650;SDS011;40241;52.684;9.758;2023-12-04T10:31:34;7.80;;;5.97;;
5650;SDS011;40241;52.684;9.758;2023-12-04T10:34:00;9.53;;;6.20;;
5650;SDS011;40241;52.684;9.758;2023-12-04T10:36:27;10.30;;;6.43;;
5650;SDS011;40241;52.684;9.758;2023-12-04T10:38:59;7.00;;;5.17;;
5650;SDS011;40241;52.684;9.758;2023-12-04T10:41:25;7.80;;;5.90;;
5650;SDS011;40241;52.684;9.758;2023-12-04T10:43:51;8.53;;;6.03;;
5650;SDS011;40241;52.684;9.758;2023-12-04T10:46:16;7.00;;;5.40;;
5650;SDS011;40241;52.684;9.758;2023-12-04T10:48:44;10.40;;;6.50;;
5650;SDS011;40241;52.684;9.758;2023-12-04T10:51:10;10.90;;;7.00;;
5650;SDS011;40241;52.684;9.758;2023-12-04T10:53:37;7.80;;;5.83;;
5650;SDS011;40241;52.684;9.758;2023-12-04T10:56:06;7.37;;;5.77;;
5650;SDS011;40241;52.684;9.758;2023-12-04T10:58:33;8.47;;;5.57;;
5650;SDS011;40241;52.684;9.758;2023-12-04T11:01:01;8.07;;;6.07;;
5650;SDS011;40241;52.684;9.758;2023-12-04T11:03:37;6.47;;;4.93;;
5650;SDS011;40241;52.684;9.758;2023-12-04T11:06:08;6.60;;;5.00;;
5650;SDS011;40241;52.684;9.758;2023-12-04T11:08:36;8.10;;;5.30;;
5650;SDS011;40241;52.684;9.758;2023-12-04T11:11:04;6.93;;;5.33;;
5650;SDS011;40241;52.684;9.758;2023-12-04T11:13:34;7.27;;;5.33;;
5650;SDS011;40241;52.684;9.758;2023-12-04T11:16:15;6.03;;;4.40;;
5650;SDS011;40241;52.684;9.758;2023-12-04T11:18:56;5.90;;;4.40;;
5650;SDS011;40241;52.684;9.758;2023-12-04T11:21:26;6.53;;;4.77;;
5650;SDS011;40241;52.684;9.758;2023-12-04T11:23:54;7.60;;;5.00;;
5650;SDS011;40241;52.684;9.758;2023-12-04T11:26:20;9.60;;;5.60;;
5650;SDS011;40241;52.684;9.758;2023-12-04T11:28:47;6.80;;;4.87;;
5650;SDS011;40241;52.684;9.758;2023-12-04T11:31:13;6.20;;;4.60;;
5650;SDS011;40241;52.684;9.758;2023-12-04T11:33:39;6.50;;;4.40;;
5650;SDS011;40241;52.684;9.758;2023-12-04T11:36:09;7.63;;;4.33;;
5650;SDS011;40241;52.684;9.758;2023-12-04T11:38:43;5.53;;;4.17;;
5650;SDS011;40241;52.684;9.758;2023-12-04T11:41:14;6.50;;;4.70;;
5650;SDS011;40241;52.684;9.758;2023-12-04T11:43:49;5.63;;;4.40;;
5650;SDS011;40241;52.684;9.758;2023-12-04T11:46:20;6.27;;;4.90;;
5650;SDS011;40241;52.684;9.758;2023-12-04T11:48:50;4.67;;;4.17;;
5650;SDS011;40241;52.684;9.758;2023-12-04T11:54:04;4.67;;;4.20;;
5650;SDS011;40241;52.684;9.758;2023-12-04T11:56:32;5.57;;;3.90;;
5650;SDS011;40241;52.684;9.758;2023-12-04T11:59:04;5.60;;;4.30;;
5650;SDS011;40241;52.684;9.758;2023-12-04T12:01:35;4.93;;;3.60;;
5650;SDS011;40241;52.684;9.758;2023-12-04T12:04:04;4.57;;;4.13;;
5650;SDS011;40241;52.684;9.758;2023-12-04T12:06:30;5.00;;;4.33;;
5650;SDS011;40241;52.684;9.758;2023-12-04T12:08:56;4.93;;;4.07;;
5650;SDS011;40241;52.684;9.758;2023-12-04T12:11:29;7.13;;;4.50;;
5650;SDS011;40241;52.684;9.758;2023-12-04T12:13:54;6.00;;;4.50;;
5650;SDS011;40241;52.684;9.758;2023-12-04T12:16:19;5.50;;;4.10;;
5650;SDS011;40241;52.684;9.758;2023-12-04T12:18:45;6.97;;;4.50;;
5650;SDS011;40241;52.684;9.758;2023-12-04T12:21:11;8.27;;;4.63;;
5650;SDS011;40241;52.684;9.758;2023-12-04T12:23:37;5.70;;;4.00;;
5650;SDS011;40241;52.684;9.758;2023-12-04T12:26:02;4.50;;;3.60;;
5650;SDS011;40241;52.684;9.758;2023-12-04T12:28:28;4.93;;;4.03;;
5650;SDS011;40241;52.684;9.758;2023-12-04T12:30:54;6.47;;;5.13;;
5650;SDS011;40241;52.684;9.758;2023-12-04T12:33:20;6.50;;;4.80;;
5650;SDS011;40241;52.684;9.758;2023-12-04T12:35:46;6.00;;;4.90;;
5650;SDS011;40241;52.684;9.758;2023-12-04T12:38:13;7.80;;;5.33;;
5650;SDS011;40241;52.684;9.758;2023-12-04T12:40:38;6.67;;;4.93;;
5650;SDS011;40241;52.684;9.758;2023-12-04T12:43:07;6.07;;;4.53;;
5650;SDS011;40241;52.684;9.758;2023-12-04T12:45:43;5.60;;;4.70;;
5650;SDS011;40241;52.684;9.758;2023-12-04T12:48:16;6.40;;;4.40;;
5650;SDS011;40241;52.684;9.758;2023-12-04T12:50:42;5.80;;;4.80;;
5650;SDS011;40241;52.684;9.758;2023-12-04T12:53:10;5.50;;;4.80;;
5650;SDS011;40241;52.684;9.758;2023-12-04T12:55:43;5.90;;;4.33;;
5650;SDS011;40241;52.684;9.758;2023-12-04T12:58:11;5.63;;;5.03;;
5650;SDS011;40241;52.684;9.758;2023-12-04T13:00:40;7.23;;;4.97;;
5650;SDS011;40241;52.684;9.758;2023-12-04T13:03:17;6.53;;;4.70;;
5650;SDS011;40241;52.684;9.758;2023-12-04T13:05:43;6.00;;;4.63;;
5650;SDS011;40241;52.684;9.758;2023-12-04T13:08:09;6.97;;;5.30;;
5650;SDS011;40241;52.684;9.758;2023-12-04T13:10:36;7.87;;;5.57;;
5650;SDS011;40241;52.684;9.758;2023-12-04T13:13:02;10.00;;;6.70;;
5650;SDS011;40241;52.684;9.758;2023-12-04T13:15:27;10.10;;;6.77;;
5650;SDS011;40241;52.684;9.758;2023-12-04T13:17:53;7.83;;;5.93;;
5650;SDS011;40241;52.684;9.758;2023-12-04T13:20:18;8.07;;;5.60;;
5650;SDS011;40241;52.684;9.758;2023-12-04T13:22:44;6.90;;;5.40;;
5650;SDS011;40241;52.684;9.758;2023-12-04T13:25:09;6.30;;;5.00;;
5650;SDS011;40241;52.684;9.758;2023-12-04T13:27:38;6.90;;;5.23;;
5650;SDS011;40241;52.684;9.758;2023-12-04T13:30:07;5.70;;;4.50;;
5650;SDS011;40241;52.684;9.758;2023-12-04T13:32:36;5.80;;;4.90;;
5650;SDS011;40241;52.684;9.758;2023-12-04T13:35:03;7.73;;;5.57;;
5650;SDS011;40241;52.684;9.758;2023-12-04T13:37:30;7.40;;;5.67;;
5650;SDS011;40241;52.684;9.758;2023-12-04T13:39:55;8.77;;;6.00;;
5650;SDS011;40241;52.684;9.758;2023-12-04T13:42:28;8.40;;;5.07;;
5650;SDS011;40241;52.684;9.758;2023-12-04T13:45:12;7.93;;;5.83;;
5650;SDS011;40241;52.684;9.758;2023-12-04T13:47:37;8.10;;;5.40;;
5650;SDS011;40241;52.684;9.758;2023-12-04T13:50:04;6.30;;;4.43;;
5650;SDS011;40241;52.684;9.758;2023-12-04T13:52:31;7.03;;;5.10;;
5650;SDS011;40241;52.684;9.758;2023-12-04T13:54:59;7.17;;;4.97;;
5650;SDS011;40241;52.684;9.758;2023-12-04T13:57:26;8.63;;;5.93;;
5650;SDS011;40241;52.684;9.758;2023-12-04T13:59:59;7.17;;;5.37;;
5650;SDS011;40241;52.684;9.758;2023-12-04T14:02:24;6.83;;;4.90;;
5650;SDS011;40241;52.684;9.758;2023-12-04T14:04:50;7.53;;;5.40;;
5650;SDS011;40241;52.684;9.758;2023-12-04T14:07:16;6.97;;;5.30;;
5650;SDS011;40241;52.684;9.758;2023-12-04T14:09:42;8.63;;;5.50;;
5650;SDS011;40241;52.684;9.758;2023-12-04T14:12:09;8.00;;;5.40;;
5650;SDS011;40241;52.684;9.758;2023-12-04T14:14:35;6.83;;;5.03;;
5650;SDS011;40241;52.684;9.758;2023-12-04T14:17:02;6.30;;;4.60;;
5650;SDS011;40241;52.684;9.758;2023-12-04T14:19:29;7.90;;;5.50;;
5650;SDS011;40241;52.684;9.758;2023-12-04T14:21:55;8.43;;;6.00;;
5650;SDS011;40241;52.684;9.758;2023-12-04T14:24:20;7.10;;;5.30;;
5650;SDS011;40241;52.684;9.758;2023-12-04T14:26:46;7.80;;;5.57;;
5650;SDS011;40241;52.684;9.758;2023-12-04T14:29:12;7.13;;;5.77;;
5650;SDS011;40241;52.684;9.758;2023-12-04T14:31:38;7.60;;;5.67;;
5650;SDS011;40241;52.684;9.758;2023-12-04T14:34:03;7.77;;;5.37;;
5650;SDS011;40241;52.684;9.758;2023-12-04T14:36:29;6.00;;;4.30;;
5650;SDS011;40241;52.684;9.758;2023-12-04T14:38:57;7.00;;;5.60;;
5650;SDS011;40241;52.684;9.758;2023-12-04T14:41:24;7.30;;;5.03;;
5650;SDS011;40241;52.684;9.758;2023-12-04T14:43:50;6.80;;;4.87;;
5650;SDS011;40241;52.684;9.758;2023-12-04T14:46:15;9.67;;;6.27;;
5650;SDS011;40241;52.684;9.758;2023-12-04T14:48:41;10.00;;;6.10;;
5650;SDS011;40241;52.684;9.758;2023-12-04T14:51:07;7.73;;;5.13;;